North Perry, Ohio
Current Conditions -  °F | °C
As of 1:35 PM on Thursday 29 Jan 2015 (Local Time) from KLNN Reporting Station
Overcast Overcast  
Wind Chill: 27°   Ceiling: 2200
Heat Index: 35°   Visibility: 7mi
Dew Point: 32°   Wind: 12mph
Humidity: 87%   Direction: 220°SW
Pressure: 29.72"   Gusts: 20mph
Location:  41.7672°N, 81.1422°W
Report Text: KLNN 291835Z AUTO 22010G17KT 7SM BKN022 OVC036 02/00 A2972 RMK AO1 T00171002
Loading
Personal Weather Stations






























Interactive Weather Map New forecast layout! Learn more

10-Day Weather Forecast

Advertisements
Track Severe Weather on mobile